sensor_id;sensor_type;location;lat;lon;timestamp;P1;durP1;ratioP1;P2;durP2;ratioP2
8978;SDS011;4524;51.364;5.448;2023-05-23T00:01:53;31.23;;;23.77;;
8978;SDS011;4524;51.364;5.448;2023-05-23T00:04:23;27.20;;;21.30;;
8978;SDS011;4524;51.364;5.448;2023-05-23T00:06:52;28.77;;;21.03;;
8978;SDS011;4524;51.364;5.448;2023-05-23T00:09:21;30.83;;;22.70;;
8978;SDS011;4524;51.364;5.448;2023-05-23T00:11:48;27.73;;;22.20;;
8978;SDS011;4524;51.364;5.448;2023-05-23T00:14:16;31.87;;;21.90;;
8978;SDS011;4524;51.364;5.448;2023-05-23T00:16:46;27.73;;;21.57;;
8978;SDS011;4524;51.364;5.448;2023-05-23T00:19:15;26.63;;;20.63;;
8978;SDS011;4524;51.364;5.448;2023-05-23T00:21:44;29.57;;;21.50;;
8978;SDS011;4524;51.364;5.448;2023-05-23T00:24:14;26.40;;;21.50;;
8978;SDS011;4524;51.364;5.448;2023-05-23T00:26:44;27.93;;;21.23;;
8978;SDS011;4524;51.364;5.448;2023-05-23T00:29:13;23.57;;;19.70;;
8978;SDS011;4524;51.364;5.448;2023-05-23T00:31:42;30.03;;;21.40;;
8978;SDS011;4524;51.364;5.448;2023-05-23T00:34:14;27.47;;;20.17;;
8978;SDS011;4524;51.364;5.448;2023-05-23T00:36:43;26.60;;;19.30;;
8978;SDS011;4524;51.364;5.448;2023-05-23T00:39:13;24.10;;;18.70;;
8978;SDS011;4524;51.364;5.448;2023-05-23T00:41:46;22.53;;;18.67;;
8978;SDS011;4524;51.364;5.448;2023-05-23T00:44:17;24.10;;;17.87;;
8978;SDS011;4524;51.364;5.448;2023-05-23T00:46:48;22.13;;;17.47;;
8978;SDS011;4524;51.364;5.448;2023-05-23T00:49:21;20.13;;;16.97;;
8978;SDS011;4524;51.364;5.448;2023-05-23T00:51:49;21.53;;;17.03;;
8978;SDS011;4524;51.364;5.448;2023-05-23T00:54:19;20.07;;;16.03;;
8978;SDS011;4524;51.364;5.448;2023-05-23T00:56:50;20.03;;;16.43;;
8978;SDS011;4524;51.364;5.448;2023-05-23T00:59:19;16.53;;;14.03;;
8978;SDS011;4524;51.364;5.448;2023-05-23T01:01:49;18.47;;;15.07;;
8978;SDS011;4524;51.364;5.448;2023-05-23T01:04:18;19.80;;;14.97;;
8978;SDS011;4524;51.364;5.448;2023-05-23T01:06:48;18.03;;;14.10;;
8978;SDS011;4524;51.364;5.448;2023-05-23T01:09:16;16.07;;;14.33;;
8978;SDS011;4524;51.364;5.448;2023-05-23T01:11:44;15.17;;;13.37;;
8978;SDS011;4524;51.364;5.448;2023-05-23T01:14:21;19.50;;;14.23;;
8978;SDS011;4524;51.364;5.448;2023-05-23T01:16:56;17.67;;;13.53;;
8978;SDS011;4524;51.364;5.448;2023-05-23T01:19:39;17.97;;;14.93;;
8978;SDS011;4524;51.364;5.448;2023-05-23T01:22:20;16.10;;;13.83;;
8978;SDS011;4524;51.364;5.448;2023-05-23T01:24:53;18.13;;;14.20;;
8978;SDS011;4524;51.364;5.448;2023-05-23T01:27:28;18.93;;;14.13;;
8978;SDS011;4524;51.364;5.448;2023-05-23T01:30:08;16.60;;;13.43;;
8978;SDS011;4524;51.364;5.448;2023-05-23T01:32:38;17.43;;;14.83;;
8978;SDS011;4524;51.364;5.448;2023-05-23T01:35:07;16.90;;;13.87;;
8978;SDS011;4524;51.364;5.448;2023-05-23T01:37:36;18.50;;;15.40;;
8978;SDS011;4524;51.364;5.448;2023-05-23T01:40:05;20.57;;;16.47;;
8978;SDS011;4524;51.364;5.448;2023-05-23T01:42:35;22.60;;;15.83;;
8978;SDS011;4524;51.364;5.448;2023-05-23T01:45:05;19.50;;;15.37;;
8978;SDS011;4524;51.364;5.448;2023-05-23T01:47:34;20.63;;;14.30;;
8978;SDS011;4524;51.364;5.448;2023-05-23T01:50:03;15.33;;;13.27;;
8978;SDS011;4524;51.364;5.448;2023-05-23T01:52:32;18.73;;;13.90;;
8978;SDS011;4524;51.364;5.448;2023-05-23T01:55:21;16.87;;;12.77;;
8978;SDS011;4524;51.364;5.448;2023-05-23T01:57:50;18.70;;;13.93;;
8978;SDS011;4524;51.364;5.448;2023-05-23T02:00:21;18.93;;;13.90;;
8978;SDS011;4524;51.364;5.448;2023-05-23T02:02:50;17.60;;;14.07;;
8978;SDS011;4524;51.364;5.448;2023-05-23T02:05:18;23.97;;;14.90;;
8978;SDS011;4524;51.364;5.448;2023-05-23T02:07:46;23.03;;;16.47;;
8978;SDS011;4524;51.364;5.448;2023-05-23T02:10:16;21.93;;;15.73;;
8978;SDS011;4524;51.364;5.448;2023-05-23T02:12:44;24.57;;;17.03;;
8978;SDS011;4524;51.364;5.448;2023-05-23T02:15:12;22.07;;;16.57;;
8978;SDS011;4524;51.364;5.448;2023-05-23T02:17:41;23.23;;;16.90;;
8978;SDS011;4524;51.364;5.448;2023-05-23T02:20:09;23.47;;;15.27;;
8978;SDS011;4524;51.364;5.448;2023-05-23T02:22:38;28.97;;;17.23;;
8978;SDS011;4524;51.364;5.448;2023-05-23T02:25:07;23.63;;;17.03;;
8978;SDS011;4524;51.364;5.448;2023-05-23T02:27:35;23.43;;;15.87;;
8978;SDS011;4524;51.364;5.448;2023-05-23T02:30:04;25.83;;;16.13;;
8978;SDS011;4524;51.364;5.448;2023-05-23T02:32:33;23.37;;;16.20;;
8978;SDS011;4524;51.364;5.448;2023-05-23T02:35:21;25.33;;;15.50;;
8978;SDS011;4524;51.364;5.448;2023-05-23T02:37:49;27.00;;;16.83;;
8978;SDS011;4524;51.364;5.448;2023-05-23T02:40:17;27.50;;;15.90;;
8978;SDS011;4524;51.364;5.448;2023-05-23T02:43:03;24.20;;;15.60;;
8978;SDS011;4524;51.364;5.448;2023-05-23T02:45:31;26.40;;;16.13;;
8978;SDS011;4524;51.364;5.448;2023-05-23T02:47:59;24.57;;;15.03;;
8978;SDS011;4524;51.364;5.448;2023-05-23T02:50:28;24.70;;;14.77;;
8978;SDS011;4524;51.364;5.448;2023-05-23T02:52:56;22.23;;;15.13;;
8978;SDS011;4524;51.364;5.448;2023-05-23T02:55:24;24.87;;;15.53;;
8978;SDS011;4524;51.364;5.448;2023-05-23T02:57:53;29.27;;;15.80;;
8978;SDS011;4524;51.364;5.448;2023-05-23T03:00:22;26.43;;;16.33;;
8978;SDS011;4524;51.364;5.448;2023-05-23T03:02:53;24.80;;;16.27;;
8978;SDS011;4524;51.364;5.448;2023-05-23T03:05:21;23.63;;;15.70;;
8978;SDS011;4524;51.364;5.448;2023-05-23T03:07:50;25.93;;;16.03;;
8978;SDS011;4524;51.364;5.448;2023-05-23T03:10:19;27.27;;;15.43;;
8978;SDS011;4524;51.364;5.448;2023-05-23T03:12:47;22.40;;;15.33;;
8978;SDS011;4524;51.364;5.448;2023-05-23T03:15:16;25.03;;;14.77;;
8978;SDS011;4524;51.364;5.448;2023-05-23T03:17:44;21.60;;;14.83;;
8978;SDS011;4524;51.364;5.448;2023-05-23T03:20:30;18.23;;;13.23;;
8978;SDS011;4524;51.364;5.448;2023-05-23T03:23:00;19.10;;;12.70;;
8978;SDS011;4524;51.364;5.448;2023-05-23T03:25:28;18.13;;;11.50;;
8978;SDS011;4524;51.364;5.448;2023-05-23T03:27:55;12.53;;;9.67;;
8978;SDS011;4524;51.364;5.448;2023-05-23T03:30:23;13.50;;;9.27;;
8978;SDS011;4524;51.364;5.448;2023-05-23T03:32:51;12.57;;;9.67;;
8978;SDS011;4524;51.364;5.448;2023-05-23T03:35:20;13.83;;;9.63;;
8978;SDS011;4524;51.364;5.448;2023-05-23T03:37:48;12.00;;;9.53;;
8978;SDS011;4524;51.364;5.448;2023-05-23T03:40:18;12.43;;;8.67;;
8978;SDS011;4524;51.364;5.448;2023-05-23T03:42:47;11.13;;;7.87;;
8978;SDS011;4524;51.364;5.448;2023-05-23T03:45:15;12.10;;;8.13;;
8978;SDS011;4524;51.364;5.448;2023-05-23T03:47:44;9.23;;;7.33;;
8978;SDS011;4524;51.364;5.448;2023-05-23T03:50:12;9.33;;;7.80;;
8978;SDS011;4524;51.364;5.448;2023-05-23T03:52:40;10.70;;;7.60;;
8978;SDS011;4524;51.364;5.448;2023-05-23T03:55:08;10.13;;;6.87;;
8978;SDS011;4524;51.364;5.448;2023-05-23T03:57:38;11.33;;;7.40;;
8978;SDS011;4524;51.364;5.448;2023-05-23T04:00:07;11.10;;;7.27;;
8978;SDS011;4524;51.364;5.448;2023-05-23T04:02:42;10.50;;;7.60;;
8978;SDS011;4524;51.364;5.448;2023-05-23T04:05:14;7.93;;;6.80;;
8978;SDS011;4524;51.364;5.448;2023-05-23T04:07:42;10.07;;;7.20;;
8978;SDS011;4524;51.364;5.448;2023-05-23T04:10:10;12.67;;;8.00;;
8978;SDS011;4524;51.364;5.448;2023-05-23T04:12:59;10.97;;;7.80;;
8978;SDS011;4524;51.364;5.448;2023-05-23T04:15:27;11.90;;;8.10;;
8978;SDS011;4524;51.364;5.448;2023-05-23T04:17:58;11.97;;;8.40;;
8978;SDS011;4524;51.364;5.448;2023-05-23T04:20:27;13.87;;;8.67;;
8978;SDS011;4524;51.364;5.448;2023-05-23T04:22:55;11.27;;;9.27;;
8978;SDS011;4524;51.364;5.448;2023-05-23T04:25:24;11.50;;;9.30;;
8978;SDS011;4524;51.364;5.448;2023-05-23T04:28:12;16.70;;;9.60;;
8978;SDS011;4524;51.364;5.448;2023-05-23T04:30:42;11.77;;;9.13;;
8978;SDS011;4524;51.364;5.448;2023-05-23T04:33:11;15.43;;;9.43;;
8978;SDS011;4524;51.364;5.448;2023-05-23T04:35:39;12.57;;;8.63;;
8978;SDS011;4524;51.364;5.448;2023-05-23T04:38:09;12.23;;;8.90;;
8978;SDS011;4524;51.364;5.448;2023-05-23T04:40:38;12.43;;;8.30;;
8978;SDS011;4524;51.364;5.448;2023-05-23T04:43:16;12.27;;;8.70;;
8978;SDS011;4524;51.364;5.448;2023-05-23T04:45:52;12.27;;;8.67;;
8978;SDS011;4524;51.364;5.448;2023-05-23T04:48:32;14.00;;;8.30;;
8978;SDS011;4524;51.364;5.448;2023-05-23T04:51:01;11.90;;;8.00;;
8978;SDS011;4524;51.364;5.448;2023-05-23T04:53:35;12.57;;;8.70;;
8978;SDS011;4524;51.364;5.448;2023-05-23T04:56:07;12.03;;;8.60;;
8978;SDS011;4524;51.364;5.448;2023-05-23T04:58:38;12.37;;;8.87;;
8978;SDS011;4524;51.364;5.448;2023-05-23T05:01:09;12.60;;;9.40;;
8978;SDS011;4524;51.364;5.448;2023-05-23T05:03:37;14.50;;;9.03;;
8978;SDS011;4524;51.364;5.448;2023-05-23T05:06:05;16.20;;;9.30;;
8978;SDS011;4524;51.364;5.448;2023-05-23T05:08:34;13.83;;;9.17;;
8978;SDS011;4524;51.364;5.448;2023-05-23T05:11:03;15.43;;;9.13;;
8978;SDS011;4524;51.364;5.448;2023-05-23T05:13:31;18.50;;;8.97;;
8978;SDS011;4524;51.364;5.448;2023-05-23T05:16:01;13.03;;;9.47;;
8978;SDS011;4524;51.364;5.448;2023-05-23T05:18:29;19.70;;;9.97;;
8978;SDS011;4524;51.364;5.448;2023-05-23T05:20:57;17.40;;;9.63;;
8978;SDS011;4524;51.364;5.448;2023-05-23T05:23:26;15.20;;;8.60;;
8978;SDS011;4524;51.364;5.448;2023-05-23T05:25:56;18.50;;;9.27;;
8978;SDS011;4524;51.364;5.448;2023-05-23T05:28:24;15.20;;;10.00;;
8978;SDS011;4524;51.364;5.448;2023-05-23T05:30:52;20.23;;;10.50;;
8978;SDS011;4524;51.364;5.448;2023-05-23T05:33:22;16.57;;;9.53;;
8978;SDS011;4524;51.364;5.448;2023-05-23T05:36:05;15.77;;;9.93;;
8978;SDS011;4524;51.364;5.448;2023-05-23T05:38:33;17.60;;;10.70;;
8978;SDS011;4524;51.364;5.448;2023-05-23T05:41:01;19.73;;;10.57;;
8978;SDS011;4524;51.364;5.448;2023-05-23T05:43:33;21.30;;;10.30;;
8978;SDS011;4524;51.364;5.448;2023-05-23T05:46:01;17.93;;;10.60;;
8978;SDS011;4524;51.364;5.448;2023-05-23T05:48:31;21.37;;;11.27;;
8978;SDS011;4524;51.364;5.448;2023-05-23T05:51:04;24.90;;;11.57;;
8978;SDS011;4524;51.364;5.448;2023-05-23T05:53:34;22.83;;;11.80;;
8978;SDS011;4524;51.364;5.448;2023-05-23T05:56:03;22.97;;;12.03;;
8978;SDS011;4524;51.364;5.448;2023-05-23T05:58:31;30.97;;;12.53;;
8978;SDS011;4524;51.364;5.448;2023-05-23T06:01:01;22.07;;;11.23;;
8978;SDS011;4524;51.364;5.448;2023-05-23T06:03:32;23.87;;;11.20;;
8978;SDS011;4524;51.364;5.448;2023-05-23T06:06:00;24.23;;;11.30;;
8978;SDS011;4524;51.364;5.448;2023-05-23T06:08:47;23.97;;;10.40;;
8978;SDS011;4524;51.364;5.448;2023-05-23T06:11:15;17.30;;;8.73;;
8978;SDS011;4524;51.364;5.448;2023-05-23T06:13:43;19.97;;;10.37;;
8978;SDS011;4524;51.364;5.448;2023-05-23T06:16:12;19.80;;;9.03;;
8978;SDS011;4524;51.364;5.448;2023-05-23T06:18:42;24.07;;;9.70;;
8978;SDS011;4524;51.364;5.448;2023-05-23T06:21:10;23.03;;;9.60;;
8978;SDS011;4524;51.364;5.448;2023-05-23T06:23:38;20.57;;;9.83;;
8978;SDS011;4524;51.364;5.448;2023-05-23T06:26:07;22.30;;;9.53;;
8978;SDS011;4524;51.364;5.448;2023-05-23T06:28:37;20.63;;;9.77;;
8978;SDS011;4524;51.364;5.448;2023-05-23T06:31:25;29.40;;;8.23;;
8978;SDS011;4524;51.364;5.448;2023-05-23T06:33:54;18.80;;;8.40;;
8978;SDS011;4524;51.364;5.448;2023-05-23T06:36:22;18.30;;;8.60;;
8978;SDS011;4524;51.364;5.448;2023-05-23T06:38:50;18.17;;;9.97;;
8978;SDS011;4524;51.364;5.448;2023-05-23T06:41:18;17.93;;;8.40;;
8978;SDS011;4524;51.364;5.448;2023-05-23T06:43:46;17.63;;;8.50;;
8978;SDS011;4524;51.364;5.448;2023-05-23T06:46:21;17.83;;;8.10;;
8978;SDS011;4524;51.364;5.448;2023-05-23T06:48:49;14.30;;;6.87;;
8978;SDS011;4524;51.364;5.448;2023-05-23T06:51:39;11.80;;;6.93;;
8978;SDS011;4524;51.364;5.448;2023-05-23T06:54:07;12.47;;;7.00;;
8978;SDS011;4524;51.364;5.448;2023-05-23T06:56:36;17.73;;;6.43;;
8978;SDS011;4524;51.364;5.448;2023-05-23T06:59:23;12.57;;;6.60;;
8978;SDS011;4524;51.364;5.448;2023-05-23T07:01:51;9.03;;;5.37;;
8978;SDS011;4524;51.364;5.448;2023-05-23T07:04:19;9.23;;;5.67;;
8978;SDS011;4524;51.364;5.448;2023-05-23T07:06:48;9.63;;;4.93;;
8978;SDS011;4524;51.364;5.448;2023-05-23T07:09:18;11.13;;;5.73;;
8978;SDS011;4524;51.364;5.448;2023-05-23T07:11:46;7.90;;;5.03;;
8978;SDS011;4524;51.364;5.448;2023-05-23T07:14:14;11.23;;;5.33;;
8978;SDS011;4524;51.364;5.448;2023-05-23T07:16:44;11.97;;;5.60;;
8978;SDS011;4524;51.364;5.448;2023-05-23T07:19:12;9.70;;;5.27;;
8978;SDS011;4524;51.364;5.448;2023-05-23T07:21:44;11.97;;;5.80;;
8978;SDS011;4524;51.364;5.448;2023-05-23T07:24:16;12.43;;;5.03;;
8978;SDS011;4524;51.364;5.448;2023-05-23T07:26:44;9.10;;;5.90;;
8978;SDS011;4524;51.364;5.448;2023-05-23T07:29:12;12.47;;;5.80;;
8978;SDS011;4524;51.364;5.448;2023-05-23T07:31:42;9.30;;;5.00;;
8978;SDS011;4524;51.364;5.448;2023-05-23T07:34:11;8.43;;;5.30;;
8978;SDS011;4524;51.364;5.448;2023-05-23T07:36:49;8.60;;;5.20;;
8978;SDS011;4524;51.364;5.448;2023-05-23T07:39:19;9.97;;;5.77;;
8978;SDS011;4524;51.364;5.448;2023-05-23T07:41:49;12.27;;;5.63;;
8978;SDS011;4524;51.364;5.448;2023-05-23T07:44:18;9.70;;;5.00;;
8978;SDS011;4524;51.364;5.448;2023-05-23T07:46:50;10.97;;;5.77;;
8978;SDS011;4524;51.364;5.448;2023-05-23T07:49:20;10.77;;;5.47;;
8978;SDS011;4524;51.364;5.448;2023-05-23T07:51:48;10.23;;;5.60;;
8978;SDS011;4524;51.364;5.448;2023-05-23T07:54:16;12.47;;;5.27;;
8978;SDS011;4524;51.364;5.448;2023-05-23T07:56:45;12.13;;;5.10;;
8978;SDS011;4524;51.364;5.448;2023-05-23T07:59:13;6.43;;;4.30;;
8978;SDS011;4524;51.364;5.448;2023-05-23T08:01:43;11.13;;;5.40;;
8978;SDS011;4524;51.364;5.448;2023-05-23T08:04:16;8.63;;;4.50;;
8978;SDS011;4524;51.364;5.448;2023-05-23T08:06:49;10.30;;;4.57;;
8978;SDS011;4524;51.364;5.448;2023-05-23T08:09:57;10.10;;;5.00;;
8978;SDS011;4524;51.364;5.448;2023-05-23T08:12:26;12.10;;;4.70;;
8978;SDS011;4524;51.364;5.448;2023-05-23T08:15:05;8.23;;;4.90;;
8978;SDS011;4524;51.364;5.448;2023-05-23T08:17:40;12.53;;;5.63;;
8978;SDS011;4524;51.364;5.448;2023-05-23T08:20:10;8.37;;;4.60;;
8978;SDS011;4524;51.364;5.448;2023-05-23T08:22:38;10.93;;;4.83;;
8978;SDS011;4524;51.364;5.448;2023-05-23T08:25:08;11.37;;;4.50;;
8978;SDS011;4524;51.364;5.448;2023-05-23T08:27:39;11.97;;;5.00;;
8978;SDS011;4524;51.364;5.448;2023-05-23T08:30:49;16.10;;;5.20;;
8978;SDS011;4524;51.364;5.448;2023-05-23T08:33:19;10.20;;;5.30;;
8978;SDS011;4524;51.364;5.448;2023-05-23T08:35:48;9.93;;;4.43;;
8978;SDS011;4524;51.364;5.448;2023-05-23T08:38:17;11.43;;;4.40;;
8978;SDS011;4524;51.364;5.448;2023-05-23T08:40:59;8.67;;;4.60;;
8978;SDS011;4524;51.364;5.448;2023-05-23T08:43:30;13.27;;;5.37;;
8978;SDS011;4524;51.364;5.448;2023-05-23T08:45:58;9.83;;;4.60;;
8978;SDS011;4524;51.364;5.448;2023-05-23T08:48:29;8.10;;;4.90;;
8978;SDS011;4524;51.364;5.448;2023-05-23T08:50:58;8.53;;;4.70;;
8978;SDS011;4524;51.364;5.448;2023-05-23T08:53:28;10.00;;;5.50;;
8978;SDS011;4524;51.364;5.448;2023-05-23T08:56:03;10.50;;;4.87;;
8978;SDS011;4524;51.364;5.448;2023-05-23T08:58:41;11.80;;;4.37;;
8978;SDS011;4524;51.364;5.448;2023-05-23T09:01:10;14.30;;;5.10;;
8978;SDS011;4524;51.364;5.448;2023-05-23T09:06:47;5.93;;;3.30;;
8978;SDS011;4524;51.364;5.448;2023-05-23T09:09:16;8.07;;;3.23;;
8978;SDS011;4524;51.364;5.448;2023-05-23T09:11:45;9.37;;;3.67;;
8978;SDS011;4524;51.364;5.448;2023-05-23T09:14:15;5.67;;;3.00;;
8978;SDS011;4524;51.364;5.448;2023-05-23T09:16:45;6.07;;;3.50;;
8978;SDS011;4524;51.364;5.448;2023-05-23T09:19:16;7.80;;;3.60;;
8978;SDS011;4524;51.364;5.448;2023-05-23T09:21:52;6.83;;;3.90;;
8978;SDS011;4524;51.364;5.448;2023-05-23T09:24:32;10.30;;;4.60;;
8978;SDS011;4524;51.364;5.448;2023-05-23T09:27:01;11.20;;;5.20;;
8978;SDS011;4524;51.364;5.448;2023-05-23T09:29:33;7.70;;;5.10;;
8978;SDS011;4524;51.364;5.448;2023-05-23T09:32:09;10.10;;;4.13;;
8978;SDS011;4524;51.364;5.448;2023-05-23T09:34:40;7.43;;;4.10;;
8978;SDS011;4524;51.364;5.448;2023-05-23T09:37:10;6.40;;;3.60;;
8978;SDS011;4524;51.364;5.448;2023-05-23T09:39:44;5.90;;;3.60;;
8978;SDS011;4524;51.364;5.448;2023-05-23T09:42:17;6.87;;;4.00;;
8978;SDS011;4524;51.364;5.448;2023-05-23T09:44:48;10.57;;;4.67;;
8978;SDS011;4524;51.364;5.448;2023-05-23T09:47:16;9.10;;;4.13;;
8978;SDS011;4524;51.364;5.448;2023-05-23T09:49:45;7.37;;;3.83;;
8978;SDS011;4524;51.364;5.448;2023-05-23T09:52:14;9.13;;;4.47;;
8978;SDS011;4524;51.364;5.448;2023-05-23T09:54:42;9.60;;;4.30;;
8978;SDS011;4524;51.364;5.448;2023-05-23T09:57:13;7.80;;;3.70;;
8978;SDS011;4524;51.364;5.448;2023-05-23T09:59:44;8.50;;;3.90;;
8978;SDS011;4524;51.364;5.448;2023-05-23T10:02:31;8.33;;;3.10;;
8978;SDS011;4524;51.364;5.448;2023-05-23T10:05:22;8.47;;;3.07;;
8978;SDS011;4524;51.364;5.448;2023-05-23T10:07:57;8.90;;;2.90;;
8978;SDS011;4524;51.364;5.448;2023-05-23T10:10:28;9.37;;;2.43;;
8978;SDS011;4524;51.364;5.448;2023-05-23T10:12:59;9.37;;;3.13;;
8978;SDS011;4524;51.364;5.448;2023-05-23T10:15:32;7.87;;;2.63;;
8978;SDS011;4524;51.364;5.448;2023-05-23T10:18:11;9.07;;;2.80;;
8978;SDS011;4524;51.364;5.448;2023-05-23T10:20:48;12.27;;;3.07;;
8978;SDS011;4524;51.364;5.448;2023-05-23T10:23:17;8.30;;;2.50;;
8978;SDS011;4524;51.364;5.448;2023-05-23T10:25:46;12.43;;;2.80;;
8978;SDS011;4524;51.364;5.448;2023-05-23T10:28:15;10.67;;;2.87;;
8978;SDS011;4524;51.364;5.448;2023-05-23T10:30:43;9.27;;;2.80;;
8978;SDS011;4524;51.364;5.448;2023-05-23T10:33:14;10.87;;;3.00;;
8978;SDS011;4524;51.364;5.448;2023-05-23T10:35:46;9.27;;;3.10;;
8978;SDS011;4524;51.364;5.448;2023-05-23T10:38:25;11.03;;;2.97;;
8978;SDS011;4524;51.364;5.448;2023-05-23T10:41:23;11.03;;;2.77;;
8978;SDS011;4524;51.364;5.448;2023-05-23T10:43:56;7.83;;;3.20;;
8978;SDS011;4524;51.364;5.448;2023-05-23T10:46:49;8.40;;;2.60;;
8978;SDS011;4524;51.364;5.448;2023-05-23T10:49:21;8.43;;;3.27;;
8978;SDS011;4524;51.364;5.448;2023-05-23T10:52:04;8.27;;;2.83;;
8978;SDS011;4524;51.364;5.448;2023-05-23T10:54:33;11.10;;;3.17;;
8978;SDS011;4524;51.364;5.448;2023-05-23T10:57:02;8.40;;;2.67;;
8978;SDS011;4524;51.364;5.448;2023-05-23T10:59:30;11.50;;;3.20;;
8978;SDS011;4524;51.364;5.448;2023-05-23T11:02:18;10.53;;;3.00;;
8978;SDS011;4524;51.364;5.448;2023-05-23T11:08:07;9.23;;;3.10;;
8978;SDS011;4524;51.364;5.448;2023-05-23T11:10:52;10.80;;;3.20;;
8978;SDS011;4524;51.364;5.448;2023-05-23T11:13:21;10.47;;;3.10;;
8978;SDS011;4524;51.364;5.448;2023-05-23T11:15:50;6.73;;;3.20;;
8978;SDS011;4524;51.364;5.448;2023-05-23T11:18:18;8.37;;;2.77;;
8978;SDS011;4524;51.364;5.448;2023-05-23T11:20:50;9.30;;;3.07;;
8978;SDS011;4524;51.364;5.448;2023-05-23T11:23:20;9.33;;;2.80;;
8978;SDS011;4524;51.364;5.448;2023-05-23T11:25:49;9.37;;;3.27;;
8978;SDS011;4524;51.364;5.448;2023-05-23T11:28:19;9.10;;;2.97;;
8978;SDS011;4524;51.364;5.448;2023-05-23T11:30:47;8.70;;;2.70;;
8978;SDS011;4524;51.364;5.448;2023-05-23T11:33:16;10.57;;;3.30;;
8978;SDS011;4524;51.364;5.448;2023-05-23T11:35:46;12.30;;;3.07;;
8978;SDS011;4524;51.364;5.448;2023-05-23T11:38:18;9.10;;;3.40;;
8978;SDS011;4524;51.364;5.448;2023-05-23T11:40:46;10.37;;;3.33;;
8978;SDS011;4524;51.364;5.448;2023-05-23T11:43:15;8.93;;;3.50;;
8978;SDS011;4524;51.364;5.448;2023-05-23T11:45:45;9.03;;;3.10;;
8978;SDS011;4524;51.364;5.448;2023-05-23T11:48:13;9.93;;;3.00;;
8978;SDS011;4524;51.364;5.448;2023-05-23T11:50:44;13.43;;;3.10;;
8978;SDS011;4524;51.364;5.448;2023-05-23T11:53:13;8.07;;;3.20;;
8978;SDS011;4524;51.364;5.448;2023-05-23T11:55:51;9.13;;;3.17;;
8978;SDS011;4524;51.364;5.448;2023-05-23T11:58:20;8.30;;;3.00;;
8978;SDS011;4524;51.364;5.448;2023-05-23T12:00:49;6.47;;;2.93;;
8978;SDS011;4524;51.364;5.448;2023-05-23T12:03:20;9.60;;;3.40;;
8978;SDS011;4524;51.364;5.448;2023-05-23T12:05:48;8.30;;;3.13;;
8978;SDS011;4524;51.364;5.448;2023-05-23T12:08:16;9.80;;;3.07;;
8978;SDS011;4524;51.364;5.448;2023-05-23T12:10:48;11.23;;;3.33;;
8978;SDS011;4524;51.364;5.448;2023-05-23T12:13:18;9.07;;;3.10;;
8978;SDS011;4524;51.364;5.448;2023-05-23T12:15:52;9.70;;;3.13;;
8978;SDS011;4524;51.364;5.448;2023-05-23T12:18:21;8.70;;;3.10;;
8978;SDS011;4524;51.364;5.448;2023-05-23T12:20:49;10.33;;;3.17;;
8978;SDS011;4524;51.364;5.448;2023-05-23T12:23:18;8.67;;;2.90;;
8978;SDS011;4524;51.364;5.448;2023-05-23T12:25:48;11.10;;;3.37;;
8978;SDS011;4524;51.364;5.448;2023-05-23T12:28:19;11.47;;;3.03;;
8978;SDS011;4524;51.364;5.448;2023-05-23T12:30:48;6.80;;;2.57;;
8978;SDS011;4524;51.364;5.448;2023-05-23T12:33:17;7.43;;;2.80;;
8978;SDS011;4524;51.364;5.448;2023-05-23T12:35:46;9.43;;;2.80;;
8978;SDS011;4524;51.364;5.448;2023-05-23T12:38:14;8.13;;;3.10;;
8978;SDS011;4524;51.364;5.448;2023-05-23T12:40:43;10.10;;;2.73;;
8978;SDS011;4524;51.364;5.448;2023-05-23T12:43:11;7.33;;;2.60;;
8978;SDS011;4524;51.364;5.448;2023-05-23T12:45:43;16.80;;;3.57;;
8978;SDS011;4524;51.364;5.448;2023-05-23T12:48:11;8.47;;;2.87;;
8978;SDS011;4524;51.364;5.448;2023-05-23T12:50:39;12.67;;;2.90;;
8978;SDS011;4524;51.364;5.448;2023-05-23T12:53:07;5.30;;;2.40;;
8978;SDS011;4524;51.364;5.448;2023-05-23T12:55:35;6.13;;;2.40;;
8978;SDS011;4524;51.364;5.448;2023-05-23T12:58:03;9.10;;;2.70;;
8978;SDS011;4524;51.364;5.448;2023-05-23T13:00:31;9.53;;;2.53;;
8978;SDS011;4524;51.364;5.448;2023-05-23T13:03:00;8.70;;;2.60;;
8978;SDS011;4524;51.364;5.448;2023-05-23T13:05:28;11.17;;;2.43;;
8978;SDS011;4524;51.364;5.448;2023-05-23T13:07:56;8.73;;;2.47;;
8978;SDS011;4524;51.364;5.448;2023-05-23T13:10:25;11.03;;;3.23;;
8978;SDS011;4524;51.364;5.448;2023-05-23T13:12:56;7.97;;;2.60;;
8978;SDS011;4524;51.364;5.448;2023-05-23T13:15:24;6.20;;;2.33;;
8978;SDS011;4524;51.364;5.448;2023-05-23T13:17:52;6.90;;;2.13;;
8978;SDS011;4524;51.364;5.448;2023-05-23T13:20:22;7.67;;;2.30;;
8978;SDS011;4524;51.364;5.448;2023-05-23T13:22:50;8.57;;;2.57;;
8978;SDS011;4524;51.364;5.448;2023-05-23T13:25:18;6.80;;;2.63;;
8978;SDS011;4524;51.364;5.448;2023-05-23T13:27:46;6.13;;;2.20;;
8978;SDS011;4524;51.364;5.448;2023-05-23T13:30:14;9.13;;;2.80;;
8978;SDS011;4524;51.364;5.448;2023-05-23T13:32:43;9.43;;;2.60;;
8978;SDS011;4524;51.364;5.448;2023-05-23T13:35:11;4.83;;;2.10;;
8978;SDS011;4524;51.364;5.448;2023-05-23T13:37:40;6.87;;;2.73;;
8978;SDS011;4524;51.364;5.448;2023-05-23T13:40:10;7.80;;;2.97;;
8978;SDS011;4524;51.364;5.448;2023-05-23T13:42:39;7.07;;;2.50;;
8978;SDS011;4524;51.364;5.448;2023-05-23T13:45:07;7.37;;;2.63;;
8978;SDS011;4524;51.364;5.448;2023-05-23T13:47:35;9.30;;;2.70;;
8978;SDS011;4524;51.364;5.448;2023-05-23T13:50:04;6.40;;;2.40;;
8978;SDS011;4524;51.364;5.448;2023-05-23T13:52:33;9.93;;;2.77;;
8978;SDS011;4524;51.364;5.448;2023-05-23T13:55:03;7.27;;;2.90;;
8978;SDS011;4524;51.364;5.448;2023-05-23T13:57:32;10.60;;;3.13;;
8978;SDS011;4524;51.364;5.448;2023-05-23T14:00:00;6.47;;;2.70;;
8978;SDS011;4524;51.364;5.448;2023-05-23T14:02:29;7.47;;;2.47;;
8978;SDS011;4524;51.364;5.448;2023-05-23T14:04:58;8.07;;;3.03;;
8978;SDS011;4524;51.364;5.448;2023-05-23T14:07:26;6.30;;;2.67;;
8978;SDS011;4524;51.364;5.448;2023-05-23T14:09:54;7.17;;;2.87;;
8978;SDS011;4524;51.364;5.448;2023-05-23T14:12:24;8.73;;;2.57;;
8978;SDS011;4524;51.364;5.448;2023-05-23T14:14:52;8.70;;;2.90;;
8978;SDS011;4524;51.364;5.448;2023-05-23T14:17:20;5.60;;;2.53;;
8978;SDS011;4524;51.364;5.448;2023-05-23T14:19:48;8.50;;;2.60;;
8978;SDS011;4524;51.364;5.448;2023-05-23T14:22:16;9.23;;;2.63;;
8978;SDS011;4524;51.364;5.448;2023-05-23T14:24:44;6.97;;;2.80;;
8978;SDS011;4524;51.364;5.448;2023-05-23T14:27:12;7.47;;;2.80;;
8978;SDS011;4524;51.364;5.448;2023-05-23T14:29:41;7.27;;;2.40;;
8978;SDS011;4524;51.364;5.448;2023-05-23T14:32:11;6.80;;;2.83;;
8978;SDS011;4524;51.364;5.448;2023-05-23T14:34:40;11.00;;;3.10;;
8978;SDS011;4524;51.364;5.448;2023-05-23T14:37:07;7.47;;;2.53;;
8978;SDS011;4524;51.364;5.448;2023-05-23T14:39:35;11.83;;;2.93;;
8978;SDS011;4524;51.364;5.448;2023-05-23T14:42:06;6.43;;;2.47;;
8978;SDS011;4524;51.364;5.448;2023-05-23T14:44:34;7.83;;;2.87;;
8978;SDS011;4524;51.364;5.448;2023-05-23T14:47:03;8.17;;;2.87;;
8978;SDS011;4524;51.364;5.448;2023-05-23T14:49:32;7.17;;;2.43;;
8978;SDS011;4524;51.364;5.448;2023-05-23T14:52:00;9.20;;;2.53;;
8978;SDS011;4524;51.364;5.448;2023-05-23T14:54:27;7.00;;;2.60;;
8978;SDS011;4524;51.364;5.448;2023-05-23T14:56:55;8.83;;;2.83;;
8978;SDS011;4524;51.364;5.448;2023-05-23T14:59:23;7.17;;;2.60;;
8978;SDS011;4524;51.364;5.448;2023-05-23T15:01:51;7.77;;;2.50;;
8978;SDS011;4524;51.364;5.448;2023-05-23T15:04:20;6.50;;;2.43;;
8978;SDS011;4524;51.364;5.448;2023-05-23T15:06:49;6.73;;;2.60;;
8978;SDS011;4524;51.364;5.448;2023-05-23T15:09:17;7.23;;;2.50;;
8978;SDS011;4524;51.364;5.448;2023-05-23T15:11:45;8.67;;;2.53;;
8978;SDS011;4524;51.364;5.448;2023-05-23T15:14:14;6.40;;;2.40;;
8978;SDS011;4524;51.364;5.448;2023-05-23T15:16:43;8.77;;;2.23;;
8978;SDS011;4524;51.364;5.448;2023-05-23T15:19:14;7.87;;;2.50;;
8978;SDS011;4524;51.364;5.448;2023-05-23T15:21:43;5.50;;;2.30;;
8978;SDS011;4524;51.364;5.448;2023-05-23T15:24:17;6.03;;;2.43;;
8978;SDS011;4524;51.364;5.448;2023-05-23T15:26:45;7.20;;;2.23;;
8978;SDS011;4524;51.364;5.448;2023-05-23T15:29:13;6.87;;;2.40;;
8978;SDS011;4524;51.364;5.448;2023-05-23T15:31:43;7.70;;;2.50;;